sensor_id;sensor_type;location;lat;lon;timestamp;pressure;altitude;pressure_sealevel;temperature;humidity
68594;BME280;55563;52.416;13.548;2023-07-31T00:01:56;100701.53;;;16.24;100.00
68594;BME280;55563;52.416;13.548;2023-07-31T00:03:56;100698.47;;;16.31;100.00
68594;BME280;55563;52.416;13.548;2023-07-31T00:05:57;100696.41;;;16.28;100.00
68594;BME280;55563;52.416;13.548;2023-07-31T00:07:58;100697.97;;;16.29;100.00
68594;BME280;55563;52.416;13.548;2023-07-31T00:09:58;100694.25;;;16.30;100.00
68594;BME280;55563;52.416;13.548;2023-07-31T00:11:59;100698.78;;;16.29;100.00
68594;BME280;55563;52.416;13.548;2023-07-31T00:14:00;100697.19;;;16.28;100.00
68594;BME280;55563;52.416;13.548;2023-07-31T00:16:01;100710.94;;;16.17;100.00
68594;BME280;55563;52.416;13.548;2023-07-31T00:18:02;100701.97;;;15.99;100.00
68594;BME280;55563;52.416;13.548;2023-07-31T00:20:03;100694.25;;;16.16;100.00
68594;BME280;55563;52.416;13.548;2023-07-31T00:22:03;100701.19;;;15.98;100.00
68594;BME280;55563;52.416;13.548;2023-07-31T00:24:04;100703.19;;;16.06;100.00
68594;BME280;55563;52.416;13.548;2023-07-31T00:26:05;100696.84;;;15.89;100.00
68594;BME280;55563;52.416;13.548;2023-07-31T00:28:06;100695.50;;;15.91;100.00
68594;BME280;55563;52.416;13.548;2023-07-31T00:30:07;100695.31;;;16.01;100.00
68594;BME280;55563;52.416;13.548;2023-07-31T00:32:07;100694.03;;;15.99;100.00
68594;BME280;55563;52.416;13.548;2023-07-31T00:34:08;100686.94;;;15.94;100.00
68594;BME280;55563;52.416;13.548;2023-07-31T00:36:09;100677.31;;;15.85;100.00
68594;BME280;55563;52.416;13.548;2023-07-31T00:38:10;100668.97;;;15.91;100.00
68594;BME280;55563;52.416;13.548;2023-07-31T00:40:11;100669.47;;;15.93;100.00
68594;BME280;55563;52.416;13.548;2023-07-31T00:42:16;100665.72;;;15.94;100.00
68594;BME280;55563;52.416;13.548;2023-07-31T00:44:16;100656.91;;;15.99;100.00
68594;BME280;55563;52.416;13.548;2023-07-31T00:46:17;100656.44;;;15.97;100.00
68594;BME280;55563;52.416;13.548;2023-07-31T00:48:18;100651.88;;;15.97;100.00
68594;BME280;55563;52.416;13.548;2023-07-31T00:50:18;100645.81;;;15.97;100.00
68594;BME280;55563;52.416;13.548;2023-07-31T00:52:20;100647.97;;;15.95;100.00
68594;BME280;55563;52.416;13.548;2023-07-31T00:54:21;100644.81;;;15.93;100.00
68594;BME280;55563;52.416;13.548;2023-07-31T00:56:22;100650.13;;;15.93;100.00
68594;BME280;55563;52.416;13.548;2023-07-31T00:58:24;100647.88;;;16.00;100.00
68594;BME280;55563;52.416;13.548;2023-07-31T01:00:26;100656.13;;;15.98;100.00
68594;BME280;55563;52.416;13.548;2023-07-31T01:02:27;100656.22;;;15.93;100.00
68594;BME280;55563;52.416;13.548;2023-07-31T01:04:28;100657.00;;;15.94;100.00
68594;BME280;55563;52.416;13.548;2023-07-31T01:06:37;100657.00;;;15.94;100.00
68594;BME280;55563;52.416;13.548;2023-07-31T01:08:48;100661.13;;;15.86;100.00
68594;BME280;55563;52.416;13.548;2023-07-31T01:10:56;100670.75;;;15.63;100.00
68594;BME280;55563;52.416;13.548;2023-07-31T01:13:02;100657.34;;;15.74;100.00
68594;BME280;55563;52.416;13.548;2023-07-31T01:15:06;100658.72;;;15.71;100.00
68594;BME280;55563;52.416;13.548;2023-07-31T01:17:08;100649.56;;;15.63;100.00
68594;BME280;55563;52.416;13.548;2023-07-31T01:19:10;100643.16;;;15.51;100.00
68594;BME280;55563;52.416;13.548;2023-07-31T01:21:41;100633.56;;;15.55;100.00
68594;BME280;55563;52.416;13.548;2023-07-31T01:26:23;100640.38;;;15.42;100.00
68594;BME280;55563;52.416;13.548;2023-07-31T01:28:35;100631.72;;;15.69;100.00
68594;BME280;55563;52.416;13.548;2023-07-31T01:30:43;100638.22;;;15.77;100.00
68594;BME280;55563;52.416;13.548;2023-07-31T01:32:47;100630.38;;;15.85;100.00
68594;BME280;55563;52.416;13.548;2023-07-31T01:34:50;100635.47;;;15.68;100.00
68594;BME280;55563;52.416;13.548;2023-07-31T01:36:51;100639.19;;;15.67;100.00
68594;BME280;55563;52.416;13.548;2023-07-31T01:38:52;100638.88;;;15.55;100.00
68594;BME280;55563;52.416;13.548;2023-07-31T01:40:53;100628.56;;;15.53;100.00
68594;BME280;55563;52.416;13.548;2023-07-31T01:42:54;100628.00;;;15.38;100.00
68594;BME280;55563;52.416;13.548;2023-07-31T01:44:54;100619.19;;;15.75;100.00
68594;BME280;55563;52.416;13.548;2023-07-31T01:46:55;100627.31;;;15.78;100.00
68594;BME280;55563;52.416;13.548;2023-07-31T01:48:56;100622.25;;;15.82;100.00
68594;BME280;55563;52.416;13.548;2023-07-31T01:51:00;100625.63;;;15.68;100.00
68594;BME280;55563;52.416;13.548;2023-07-31T01:53:01;100635.88;;;15.75;100.00
68594;BME280;55563;52.416;13.548;2023-07-31T01:55:01;100629.50;;;15.76;100.00
68594;BME280;55563;52.416;13.548;2023-07-31T01:57:02;100623.31;;;15.81;100.00
68594;BME280;55563;52.416;13.548;2023-07-31T01:59:03;100616.44;;;15.80;100.00
68594;BME280;55563;52.416;13.548;2023-07-31T02:01:04;100613.31;;;15.78;100.00
68594;BME280;55563;52.416;13.548;2023-07-31T02:03:04;100616.34;;;15.85;100.00
68594;BME280;55563;52.416;13.548;2023-07-31T02:05:05;100610.94;;;15.76;100.00
68594;BME280;55563;52.416;13.548;2023-07-31T02:07:06;100611.13;;;15.80;100.00
68594;BME280;55563;52.416;13.548;2023-07-31T02:09:07;100613.50;;;15.81;100.00
68594;BME280;55563;52.416;13.548;2023-07-31T02:11:07;100610.84;;;15.81;100.00
68594;BME280;55563;52.416;13.548;2023-07-31T02:13:08;100615.44;;;15.76;100.00
68594;BME280;55563;52.416;13.548;2023-07-31T02:15:09;100611.63;;;15.82;100.00
68594;BME280;55563;52.416;13.548;2023-07-31T02:17:10;100616.13;;;15.67;100.00
68594;BME280;55563;52.416;13.548;2023-07-31T02:19:10;100618.00;;;15.67;100.00
68594;BME280;55563;52.416;13.548;2023-07-31T02:21:11;100600.81;;;15.64;100.00
68594;BME280;55563;52.416;13.548;2023-07-31T02:23:12;100602.88;;;15.67;100.00
68594;BME280;55563;52.416;13.548;2023-07-31T02:25:12;100608.00;;;15.78;100.00
68594;BME280;55563;52.416;13.548;2023-07-31T02:27:13;100605.56;;;15.81;100.00
68594;BME280;55563;52.416;13.548;2023-07-31T02:29:14;100601.03;;;15.82;100.00
68594;BME280;55563;52.416;13.548;2023-07-31T02:31:14;100607.41;;;15.81;100.00
68594;BME280;55563;52.416;13.548;2023-07-31T02:33:15;100594.34;;;15.70;100.00
68594;BME280;55563;52.416;13.548;2023-07-31T02:35:16;100597.16;;;15.60;100.00
68594;BME280;55563;52.416;13.548;2023-07-31T02:37:18;100595.13;;;15.71;100.00
68594;BME280;55563;52.416;13.548;2023-07-31T02:39:20;100587.44;;;15.56;100.00
68594;BME280;55563;52.416;13.548;2023-07-31T02:41:21;100596.81;;;15.67;100.00
68594;BME280;55563;52.416;13.548;2023-07-31T02:43:22;100590.63;;;15.72;100.00
68594;BME280;55563;52.416;13.548;2023-07-31T02:45:23;100583.94;;;15.74;100.00
68594;BME280;55563;52.416;13.548;2023-07-31T02:47:23;100592.06;;;15.64;100.00
68594;BME280;55563;52.416;13.548;2023-07-31T02:49:24;100584.53;;;15.57;100.00
68594;BME280;55563;52.416;13.548;2023-07-31T02:51:25;100581.38;;;15.55;100.00
68594;BME280;55563;52.416;13.548;2023-07-31T02:53:26;100585.78;;;15.27;100.00
68594;BME280;55563;52.416;13.548;2023-07-31T02:55:26;100590.84;;;15.43;100.00
68594;BME280;55563;52.416;13.548;2023-07-31T02:57:27;100587.25;;;15.52;100.00
68594;BME280;55563;52.416;13.548;2023-07-31T02:59:28;100593.63;;;15.51;100.00
68594;BME280;55563;52.416;13.548;2023-07-31T03:01:28;100590.88;;;15.56;100.00
68594;BME280;55563;52.416;13.548;2023-07-31T03:03:29;100580.94;;;15.48;100.00
68594;BME280;55563;52.416;13.548;2023-07-31T03:05:29;100591.03;;;15.46;100.00
68594;BME280;55563;52.416;13.548;2023-07-31T03:07:30;100589.47;;;15.45;100.00
68594;BME280;55563;52.416;13.548;2023-07-31T03:09:31;100590.97;;;15.51;100.00
68594;BME280;55563;52.416;13.548;2023-07-31T03:11:31;100586.47;;;15.52;100.00
68594;BME280;55563;52.416;13.548;2023-07-31T03:13:32;100585.41;;;15.53;100.00
68594;BME280;55563;52.416;13.548;2023-07-31T03:15:33;100592.56;;;15.52;100.00
68594;BME280;55563;52.416;13.548;2023-07-31T03:17:33;100596.31;;;15.33;100.00
68594;BME280;55563;52.416;13.548;2023-07-31T03:19:34;100591.53;;;15.48;100.00
68594;BME280;55563;52.416;13.548;2023-07-31T03:21:35;100589.78;;;15.44;100.00
68594;BME280;55563;52.416;13.548;2023-07-31T03:23:35;100587.13;;;15.44;100.00
68594;BME280;55563;52.416;13.548;2023-07-31T03:25:36;100588.97;;;15.43;100.00
68594;BME280;55563;52.416;13.548;2023-07-31T03:27:37;100580.53;;;15.41;100.00
68594;BME280;55563;52.416;13.548;2023-07-31T03:29:37;100579.03;;;15.54;100.00
68594;BME280;55563;52.416;13.548;2023-07-31T03:31:38;100578.84;;;15.45;100.00
68594;BME280;55563;52.416;13.548;2023-07-31T03:33:38;100578.56;;;15.33;100.00
68594;BME280;55563;52.416;13.548;2023-07-31T03:35:39;100584.72;;;15.28;100.00
68594;BME280;55563;52.416;13.548;2023-07-31T03:37:40;100575.81;;;15.38;100.00
68594;BME280;55563;52.416;13.548;2023-07-31T03:39:41;100576.22;;;15.45;100.00
68594;BME280;55563;52.416;13.548;2023-07-31T03:41:41;100575.09;;;15.51;100.00
68594;BME280;55563;52.416;13.548;2023-07-31T03:43:42;100574.28;;;15.51;100.00
68594;BME280;55563;52.416;13.548;2023-07-31T03:45:43;100579.13;;;15.30;100.00
68594;BME280;55563;52.416;13.548;2023-07-31T03:47:43;100567.56;;;15.40;100.00
68594;BME280;55563;52.416;13.548;2023-07-31T03:49:44;100566.50;;;15.41;100.00
68594;BME280;55563;52.416;13.548;2023-07-31T03:51:44;100572.22;;;15.48;100.00
68594;BME280;55563;52.416;13.548;2023-07-31T03:53:45;100572.34;;;15.56;100.00
68594;BME280;55563;52.416;13.548;2023-07-31T03:55:46;100575.09;;;15.51;100.00
68594;BME280;55563;52.416;13.548;2023-07-31T03:57:46;100568.50;;;15.49;100.00
68594;BME280;55563;52.416;13.548;2023-07-31T03:59:47;100569.97;;;15.55;100.00
68594;BME280;55563;52.416;13.548;2023-07-31T04:01:47;100569.09;;;15.59;100.00
68594;BME280;55563;52.416;13.548;2023-07-31T04:03:48;100571.13;;;15.49;100.00
68594;BME280;55563;52.416;13.548;2023-07-31T04:05:49;100562.88;;;15.50;100.00
68594;BME280;55563;52.416;13.548;2023-07-31T04:07:49;100559.53;;;15.45;100.00
68594;BME280;55563;52.416;13.548;2023-07-31T04:09:50;100564.63;;;15.41;100.00
68594;BME280;55563;52.416;13.548;2023-07-31T04:11:50;100561.69;;;15.43;100.00
68594;BME280;55563;52.416;13.548;2023-07-31T04:13:51;100560.91;;;15.42;100.00
68594;BME280;55563;52.416;13.548;2023-07-31T04:15:52;100552.09;;;15.47;100.00
68594;BME280;55563;52.416;13.548;2023-07-31T04:17:52;100556.78;;;15.36;100.00
68594;BME280;55563;52.416;13.548;2023-07-31T04:19:53;100554.81;;;15.42;100.00
68594;BME280;55563;52.416;13.548;2023-07-31T04:21:54;100559.28;;;15.60;100.00
68594;BME280;55563;52.416;13.548;2023-07-31T04:23:54;100552.22;;;15.55;100.00
68594;BME280;55563;52.416;13.548;2023-07-31T04:25:56;100553.81;;;15.56;100.00
68594;BME280;55563;52.416;13.548;2023-07-31T04:27:57;100549.09;;;15.53;100.00
68594;BME280;55563;52.416;13.548;2023-07-31T04:29:57;100538.56;;;15.48;100.00
68594;BME280;55563;52.416;13.548;2023-07-31T04:31:58;100548.38;;;15.48;100.00
68594;BME280;55563;52.416;13.548;2023-07-31T04:33:58;100538.69;;;15.57;100.00
68594;BME280;55563;52.416;13.548;2023-07-31T04:35:59;100545.25;;;15.59;100.00
68594;BME280;55563;52.416;13.548;2023-07-31T04:38:00;100546.34;;;15.58;100.00
68594;BME280;55563;52.416;13.548;2023-07-31T04:40:00;100545.94;;;15.65;100.00
68594;BME280;55563;52.416;13.548;2023-07-31T04:42:01;100551.84;;;15.62;100.00
68594;BME280;55563;52.416;13.548;2023-07-31T04:44:02;100544.69;;;15.62;100.00
68594;BME280;55563;52.416;13.548;2023-07-31T04:46:04;100538.00;;;15.51;100.00
68594;BME280;55563;52.416;13.548;2023-07-31T04:48:05;100546.13;;;15.55;100.00
68594;BME280;55563;52.416;13.548;2023-07-31T04:50:06;100535.34;;;15.51;100.00
68594;BME280;55563;52.416;13.548;2023-07-31T04:52:06;100530.47;;;15.58;100.00
68594;BME280;55563;52.416;13.548;2023-07-31T04:54:07;100527.69;;;15.63;100.00
68594;BME280;55563;52.416;13.548;2023-07-31T04:56:07;100519.97;;;15.67;100.00
68594;BME280;55563;52.416;13.548;2023-07-31T04:58:08;100532.78;;;15.74;100.00
68594;BME280;55563;52.416;13.548;2023-07-31T05:00:09;100524.47;;;15.66;100.00
68594;BME280;55563;52.416;13.548;2023-07-31T05:02:11;100528.69;;;15.67;100.00
68594;BME280;55563;52.416;13.548;2023-07-31T05:04:13;100527.91;;;15.67;100.00
68594;BME280;55563;52.416;13.548;2023-07-31T05:06:14;100534.00;;;15.67;100.00
68594;BME280;55563;52.416;13.548;2023-07-31T05:08:16;100526.84;;;15.68;100.00
68594;BME280;55563;52.416;13.548;2023-07-31T05:10:17;100533.91;;;15.73;100.00
68594;BME280;55563;52.416;13.548;2023-07-31T05:12:18;100525.63;;;15.74;100.00
68594;BME280;55563;52.416;13.548;2023-07-31T05:14:19;100528.09;;;15.84;100.00
68594;BME280;55563;52.416;13.548;2023-07-31T05:16:20;100529.66;;;15.85;100.00
68594;BME280;55563;52.416;13.548;2023-07-31T05:18:21;100526.91;;;15.90;100.00
68594;BME280;55563;52.416;13.548;2023-07-31T05:20:21;100526.63;;;15.78;100.00
68594;BME280;55563;52.416;13.548;2023-07-31T05:22:22;100523.75;;;15.88;100.00
68594;BME280;55563;52.416;13.548;2023-07-31T05:24:23;100528.50;;;15.91;100.00
68594;BME280;55563;52.416;13.548;2023-07-31T05:26:23;100530.16;;;15.87;100.00
68594;BME280;55563;52.416;13.548;2023-07-31T05:28:24;100526.41;;;15.88;100.00
68594;BME280;55563;52.416;13.548;2023-07-31T05:30:25;100525.53;;;15.93;100.00
68594;BME280;55563;52.416;13.548;2023-07-31T05:32:25;100531.03;;;15.96;100.00
68594;BME280;55563;52.416;13.548;2023-07-31T05:34:26;100525.75;;;15.96;100.00
68594;BME280;55563;52.416;13.548;2023-07-31T05:36:27;100511.91;;;15.86;100.00
68594;BME280;55563;52.416;13.548;2023-07-31T05:38:27;100526.63;;;15.92;100.00
68594;BME280;55563;52.416;13.548;2023-07-31T05:40:28;100517.00;;;15.96;100.00
68594;BME280;55563;52.416;13.548;2023-07-31T05:42:29;100518.97;;;15.90;100.00
68594;BME280;55563;52.416;13.548;2023-07-31T05:44:29;100519.44;;;15.92;100.00
68594;BME280;55563;52.416;13.548;2023-07-31T05:46:30;100521.63;;;15.90;100.00
68594;BME280;55563;52.416;13.548;2023-07-31T05:48:31;100517.56;;;15.93;100.00
68594;BME280;55563;52.416;13.548;2023-07-31T05:50:32;100516.91;;;16.01;100.00
68594;BME280;55563;52.416;13.548;2023-07-31T05:52:32;100523.28;;;16.00;100.00
68594;BME280;55563;52.416;13.548;2023-07-31T05:54:33;100517.00;;;15.96;100.00
68594;BME280;55563;52.416;13.548;2023-07-31T05:56:34;100514.63;;;15.94;100.00
68594;BME280;55563;52.416;13.548;2023-07-31T05:58:34;100518.06;;;15.95;100.00
68594;BME280;55563;52.416;13.548;2023-07-31T06:00:35;100517.56;;;15.93;100.00
68594;BME280;55563;52.416;13.548;2023-07-31T06:02:35;100522.47;;;15.99;100.00
68594;BME280;55563;52.416;13.548;2023-07-31T06:04:37;100517.06;;;16.04;100.00
68594;BME280;55563;52.416;13.548;2023-07-31T06:06:38;100512.94;;;16.12;100.00
68594;BME280;55563;52.416;13.548;2023-07-31T06:08:38;100515.59;;;16.12;100.00
68594;BME280;55563;52.416;13.548;2023-07-31T06:10:40;100515.19;;;16.19;100.00
68594;BME280;55563;52.416;13.548;2023-07-31T06:12:41;100519.81;;;16.13;100.00
68594;BME280;55563;52.416;13.548;2023-07-31T06:14:41;100514.72;;;16.03;100.00
68594;BME280;55563;52.416;13.548;2023-07-31T06:16:42;100513.81;;;16.07;100.00
68594;BME280;55563;52.416;13.548;2023-07-31T06:18:44;100516.97;;;16.09;100.00
68594;BME280;55563;52.416;13.548;2023-07-31T06:20:45;100511.50;;;16.06;100.00
68594;BME280;55563;52.416;13.548;2023-07-31T06:22:45;100511.66;;;16.09;100.00
68594;BME280;55563;52.416;13.548;2023-07-31T06:24:46;100517.06;;;16.04;100.00
68594;BME280;55563;52.416;13.548;2023-07-31T06:26:47;100514.59;;;16.08;100.00
68594;BME280;55563;52.416;13.548;2023-07-31T06:28:47;100512.94;;;16.12;100.00
68594;BME280;55563;52.416;13.548;2023-07-31T06:30:48;100521.88;;;16.02;100.00
68594;BME280;55563;52.416;13.548;2023-07-31T06:32:49;100518.84;;;16.09;100.00
68594;BME280;55563;52.416;13.548;2023-07-31T06:34:49;100512.94;;;16.12;100.00
68594;BME280;55563;52.416;13.548;2023-07-31T06:36:50;100514.03;;;16.11;100.00
68594;BME280;55563;52.416;13.548;2023-07-31T06:38:51;100508.72;;;16.11;100.00
68594;BME280;55563;52.416;13.548;2023-07-31T06:40:52;100512.34;;;16.15;100.00
68594;BME280;55563;52.416;13.548;2023-07-31T06:42:52;100523.97;;;16.05;100.00
68594;BME280;55563;52.416;13.548;2023-07-31T06:44:53;100512.84;;;16.03;100.00
68594;BME280;55563;52.416;13.548;2023-07-31T06:46:53;100520.09;;;16.11;100.00
68594;BME280;55563;52.416;13.548;2023-07-31T06:48:54;100511.47;;;16.20;100.00
68594;BME280;55563;52.416;13.548;2023-07-31T06:50:55;100516.88;;;16.14;100.00
68594;BME280;55563;52.416;13.548;2023-07-31T06:52:56;100505.97;;;16.16;100.00
68594;BME280;55563;52.416;13.548;2023-07-31T06:55:16;100509.09;;;16.18;100.00
68594;BME280;55563;52.416;13.548;2023-07-31T06:57:18;100506.72;;;16.17;100.00
68594;BME280;55563;52.416;13.548;2023-07-31T06:59:19;100503.72;;;16.09;100.00
68594;BME280;55563;52.416;13.548;2023-07-31T07:01:20;100504.06;;;16.17;100.00
68594;BME280;55563;52.416;13.548;2023-07-31T07:03:20;100505.66;;;16.18;100.00
68594;BME280;55563;52.416;13.548;2023-07-31T07:05:21;100511.94;;;16.22;100.00
68594;BME280;55563;52.416;13.548;2023-07-31T07:07:22;100506.63;;;16.22;100.00
68594;BME280;55563;52.416;13.548;2023-07-31T07:09:22;100505.38;;;16.19;100.00
68594;BME280;55563;52.416;13.548;2023-07-31T07:11:23;100507.16;;;16.10;100.00
68594;BME280;55563;52.416;13.548;2023-07-31T07:13:25;100504.00;;;16.08;100.00
68594;BME280;55563;52.416;13.548;2023-07-31T07:15:26;100507.34;;;16.13;100.00
68594;BME280;55563;52.416;13.548;2023-07-31T07:17:28;100511.28;;;16.16;100.00
68594;BME280;55563;52.416;13.548;2023-07-31T07:19:30;100508.47;;;16.21;100.00
68594;BME280;55563;52.416;13.548;2023-07-31T07:21:30;100503.59;;;16.14;100.00
68594;BME280;55563;52.416;13.548;2023-07-31T07:23:31;100514.41;;;16.18;100.00
68594;BME280;55563;52.416;13.548;2023-07-31T07:25:31;100516.19;;;16.09;100.00
68594;BME280;55563;52.416;13.548;2023-07-31T07:27:32;100510.50;;;16.16;100.00
68594;BME280;55563;52.416;13.548;2023-07-31T07:29:34;100516.75;;;16.20;100.00
68594;BME280;55563;52.416;13.548;2023-07-31T07:31:35;100516.88;;;16.14;100.00
68594;BME280;55563;52.416;13.548;2023-07-31T07:33:36;100516.25;;;16.18;100.00
68594;BME280;55563;52.416;13.548;2023-07-31T07:35:37;100510.75;;;16.28;100.00
68594;BME280;55563;52.416;13.548;2023-07-31T07:37:37;100502.97;;;16.31;100.00
68594;BME280;55563;52.416;13.548;2023-07-31T07:39:38;100501.78;;;16.37;100.00
68594;BME280;55563;52.416;13.548;2023-07-31T07:41:39;100500.59;;;16.43;100.00
68594;BME280;55563;52.416;13.548;2023-07-31T07:43:39;100501.41;;;16.66;100.00
68594;BME280;55563;52.416;13.548;2023-07-31T07:45:40;100502.06;;;16.72;100.00
68594;BME280;55563;52.416;13.548;2023-07-31T07:47:41;100495.63;;;16.64;100.00
68594;BME280;55563;52.416;13.548;2023-07-31T07:49:41;100498.38;;;16.81;100.00
68594;BME280;55563;52.416;13.548;2023-07-31T07:51:42;100487.66;;;16.86;100.00
68594;BME280;55563;52.416;13.548;2023-07-31T07:53:43;100489.50;;;16.86;100.00
68594;BME280;55563;52.416;13.548;2023-07-31T07:55:43;100485.16;;;16.90;100.00
68594;BME280;55563;52.416;13.548;2023-07-31T07:57:44;100486.78;;;16.99;100.00
68594;BME280;55563;52.416;13.548;2023-07-31T07:59:45;100479.75;;;17.04;100.00
68594;BME280;55563;52.416;13.548;2023-07-31T08:01:45;100482.41;;;17.04;100.00
68594;BME280;55563;52.416;13.548;2023-07-31T08:03:47;100476.94;;;17.00;100.00
68594;BME280;55563;52.416;13.548;2023-07-31T08:05:48;100481.47;;;16.99;100.00
68594;BME280;55563;52.416;13.548;2023-07-31T08:07:48;100475.41;;;17.08;100.00
68594;BME280;55563;52.416;13.548;2023-07-31T08:09:49;100482.28;;;17.09;100.00
68594;BME280;55563;52.416;13.548;2023-07-31T08:11:50;100484.16;;;17.08;100.00
68594;BME280;55563;52.416;13.548;2023-07-31T08:13:51;100479.47;;;17.05;100.00
68594;BME280;55563;52.416;13.548;2023-07-31T08:15:51;100485.84;;;17.04;100.00
68594;BME280;55563;52.416;13.548;2023-07-31T08:17:52;100481.03;;;17.06;100.00
68594;BME280;55563;52.416;13.548;2023-07-31T08:19:53;100489.44;;;16.99;100.00
68594;BME280;55563;52.416;13.548;2023-07-31T08:21:53;100473.88;;;17.07;100.00
68594;BME280;55563;52.416;13.548;2023-07-31T08:23:54;100485.00;;;16.86;100.00
68594;BME280;55563;52.416;13.548;2023-07-31T08:25:54;100490.31;;;16.86;100.00
68594;BME280;55563;52.416;13.548;2023-07-31T08:27:56;100475.81;;;16.92;100.00
68594;BME280;55563;52.416;13.548;2023-07-31T08:29:56;100484.41;;;16.98;100.00
68594;BME280;55563;52.416;13.548;2023-07-31T08:31:57;100475.84;;;17.01;100.00
68594;BME280;55563;52.416;13.548;2023-07-31T08:33:58;100473.50;;;16.99;100.00
68594;BME280;55563;52.416;13.548;2023-07-31T08:35:58;100479.59;;;17.00;100.00
68594;BME280;55563;52.416;13.548;2023-07-31T08:37:59;100467.94;;;17.10;100.00
68594;BME280;55563;52.416;13.548;2023-07-31T08:40:00;100470.28;;;17.11;100.00
68594;BME280;55563;52.416;13.548;2023-07-31T08:42:00;100468.78;;;17.27;100.00
68594;BME280;55563;52.416;13.548;2023-07-31T08:44:01;100469.44;;;17.33;100.00
68594;BME280;55563;52.416;13.548;2023-07-31T08:46:02;100471.00;;;17.34;100.00
68594;BME280;55563;52.416;13.548;2023-07-31T08:48:03;100455.22;;;17.37;100.00
68594;BME280;55563;52.416;13.548;2023-07-31T08:50:04;100466.47;;;17.34;100.00
68594;BME280;55563;52.416;13.548;2023-07-31T08:52:06;100466.47;;;17.34;100.00
68594;BME280;55563;52.416;13.548;2023-07-31T08:54:07;100466.63;;;17.38;100.00
68594;BME280;55563;52.416;13.548;2023-07-31T08:56:08;100466.50;;;17.43;100.00
68594;BME280;55563;52.416;13.548;2023-07-31T08:58:09;100460.91;;;17.53;100.00
68594;BME280;55563;52.416;13.548;2023-07-31T09:00:13;100457.91;;;17.46;100.00
68594;BME280;55563;52.416;13.548;2023-07-31T09:02:15;100464.16;;;17.41;100.00
68594;BME280;55563;52.416;13.548;2023-07-31T09:04:18;100463.34;;;17.32;100.00
68594;BME280;55563;52.416;13.548;2023-07-31T09:06:20;100473.53;;;17.39;100.00
68594;BME280;55563;52.416;13.548;2023-07-31T09:08:23;100469.00;;;17.39;100.00
68594;BME280;55563;52.416;13.548;2023-07-31T09:10:27;100464.16;;;17.41;100.00
68594;BME280;55563;52.416;13.548;2023-07-31T09:12:28;100465.16;;;17.54;100.00
68594;BME280;55563;52.416;13.548;2023-07-31T09:14:28;100463.97;;;17.69;100.00
68594;BME280;55563;52.416;13.548;2023-07-31T09:16:29;100466.75;;;17.64;100.00
68594;BME280;55563;52.416;13.548;2023-07-31T09:18:52;100462.41;;;17.76;100.00
68594;BME280;55563;52.416;13.548;2023-07-31T09:21:02;100460.38;;;17.91;100.00
68594;BME280;55563;52.416;13.548;2023-07-31T09:23:14;100461.63;;;17.84;100.00
68594;BME280;55563;52.416;13.548;2023-07-31T09:27:47;100469.31;;;17.86;100.00
68594;BME280;55563;52.416;13.548;2023-07-31T09:29:58;100466.00;;;17.80;100.00
68594;BME280;55563;52.416;13.548;2023-07-31T09:31:59;100467.44;;;17.86;100.00
68594;BME280;55563;52.416;13.548;2023-07-31T09:33:59;100473.53;;;17.87;100.00
68594;BME280;55563;52.416;13.548;2023-07-31T09:36:00;100462.75;;;17.92;100.00
68594;BME280;55563;52.416;13.548;2023-07-31T09:38:10;100464.78;;;17.86;100.00
68594;BME280;55563;52.416;13.548;2023-07-31T09:40:25;100469.09;;;17.65;100.00
68594;BME280;55563;52.416;13.548;2023-07-31T09:42:26;100459.72;;;17.59;100.00
68594;BME280;55563;52.416;13.548;2023-07-31T09:44:42;100454.66;;;17.49;100.00
68594;BME280;55563;52.416;13.548;2023-07-31T09:46:43;100454.31;;;17.51;100.00
68594;BME280;55563;52.416;13.548;2023-07-31T09:48:44;100448.09;;;17.55;100.00
68594;BME280;55563;52.416;13.548;2023-07-31T09:50:46;100455.19;;;17.60;100.00
68594;BME280;55563;52.416;13.548;2023-07-31T09:52:47;100449.72;;;17.65;100.00
68594;BME280;55563;52.416;13.548;2023-07-31T09:54:47;100455.66;;;17.70;100.00
68594;BME280;55563;52.416;13.548;2023-07-31T09:56:50;100447.22;;;17.77;100.00
68594;BME280;55563;52.416;13.548;2023-07-31T09:58:50;100447.88;;;17.82;100.00
68594;BME280;55563;52.416;13.548;2023-07-31T10:00:51;100450.06;;;17.89;100.00
68594;BME280;55563;52.416;13.548;2023-07-31T10:02:52;100445.53;;;17.90;100.00
68594;BME280;55563;52.416;13.548;2023-07-31T10:04:57;100444.78;;;17.98;100.00
68594;BME280;55563;52.416;13.548;2023-07-31T10:07:02;100433.19;;;18.02;100.00
68594;BME280;55563;52.416;13.548;2023-07-31T10:09:06;100435.84;;;18.11;100.00
68594;BME280;55563;52.416;13.548;2023-07-31T10:11:09;100426.78;;;18.12;100.00
68594;BME280;55563;52.416;13.548;2023-07-31T10:13:11;100422.84;;;18.09;100.00
68594;BME280;55563;52.416;13.548;2023-07-31T10:15:12;100425.22;;;18.11;100.00
68594;BME280;55563;52.416;13.548;2023-07-31T10:17:15;100427.09;;;18.10;100.00
68594;BME280;55563;52.416;13.548;2023-07-31T10:19:18;100429.44;;;18.12;100.00
68594;BME280;55563;52.416;13.548;2023-07-31T10:21:19;100429.75;;;18.10;100.00
68594;BME280;55563;52.416;13.548;2023-07-31T10:23:20;100426.44;;;18.05;100.00
68594;BME280;55563;52.416;13.548;2023-07-31T10:25:21;100430.38;;;18.07;100.00